sensor_id;sensor_type;location;lat;lon;timestamp;P1;durP1;ratioP1;P2;durP2;ratioP2
9052;SDS011;4561;47.450;7.516;2023-12-28T00:00:56;2.23;;;2.03;;
9052;SDS011;4561;47.450;7.516;2023-12-28T00:04:16;3.80;;;2.40;;
9052;SDS011;4561;47.450;7.516;2023-12-28T00:07:39;6.73;;;2.43;;
9052;SDS011;4561;47.450;7.516;2023-12-28T00:10:59;2.00;;;1.80;;
9052;SDS011;4561;47.450;7.516;2023-12-28T00:14:20;4.20;;;1.67;;
9052;SDS011;4561;47.450;7.516;2023-12-28T00:17:43;2.10;;;1.90;;
9052;SDS011;4561;47.450;7.516;2023-12-28T00:21:06;2.70;;;1.90;;
9052;SDS011;4561;47.450;7.516;2023-12-28T00:24:29;2.40;;;2.10;;
9052;SDS011;4561;47.450;7.516;2023-12-28T00:27:49;2.03;;;1.73;;
9052;SDS011;4561;47.450;7.516;2023-12-28T00:31:12;1.93;;;1.57;;
9052;SDS011;4561;47.450;7.516;2023-12-28T00:34:32;1.77;;;1.57;;
9052;SDS011;4561;47.450;7.516;2023-12-28T00:37:53;2.67;;;1.40;;
9052;SDS011;4561;47.450;7.516;2023-12-28T00:41:13;1.60;;;1.50;;
9052;SDS011;4561;47.450;7.516;2023-12-28T00:44:33;1.57;;;1.30;;
9052;SDS011;4561;47.450;7.516;2023-12-28T00:47:54;3.47;;;1.50;;
9052;SDS011;4561;47.450;7.516;2023-12-28T00:51:19;1.53;;;1.30;;
9052;SDS011;4561;47.450;7.516;2023-12-28T00:54:40;1.83;;;1.70;;
9052;SDS011;4561;47.450;7.516;2023-12-28T00:58:00;2.13;;;1.27;;
9052;SDS011;4561;47.450;7.516;2023-12-28T01:01:23;1.90;;;1.70;;
9052;SDS011;4561;47.450;7.516;2023-12-28T01:04:44;3.57;;;1.87;;
9052;SDS011;4561;47.450;7.516;2023-12-28T01:08:04;2.50;;;1.83;;
9052;SDS011;4561;47.450;7.516;2023-12-28T01:11:24;1.70;;;1.60;;
9052;SDS011;4561;47.450;7.516;2023-12-28T01:14:45;3.27;;;1.70;;
9052;SDS011;4561;47.450;7.516;2023-12-28T01:18:05;1.70;;;1.60;;
9052;SDS011;4561;47.450;7.516;2023-12-28T01:21:27;2.27;;;2.07;;
9052;SDS011;4561;47.450;7.516;2023-12-28T01:24:48;2.00;;;1.80;;
9052;SDS011;4561;47.450;7.516;2023-12-28T01:28:11;2.33;;;1.90;;
9052;SDS011;4561;47.450;7.516;2023-12-28T01:31:33;1.97;;;1.77;;
9052;SDS011;4561;47.450;7.516;2023-12-28T01:34:58;2.87;;;1.80;;
9052;SDS011;4561;47.450;7.516;2023-12-28T01:38:19;2.17;;;1.50;;
9052;SDS011;4561;47.450;7.516;2023-12-28T01:41:39;1.63;;;1.53;;
9052;SDS011;4561;47.450;7.516;2023-12-28T01:44:59;1.67;;;1.57;;
9052;SDS011;4561;47.450;7.516;2023-12-28T01:48:20;2.20;;;1.47;;
9052;SDS011;4561;47.450;7.516;2023-12-28T01:51:40;1.50;;;1.17;;
9052;SDS011;4561;47.450;7.516;2023-12-28T01:55:05;1.20;;;1.07;;
9052;SDS011;4561;47.450;7.516;2023-12-28T01:58:26;1.50;;;1.00;;
9052;SDS011;4561;47.450;7.516;2023-12-28T02:01:48;1.73;;;1.30;;
9052;SDS011;4561;47.450;7.516;2023-12-28T02:05:10;2.43;;;1.60;;
9052;SDS011;4561;47.450;7.516;2023-12-28T02:08:33;1.40;;;1.13;;
9052;SDS011;4561;47.450;7.516;2023-12-28T02:11:54;1.17;;;1.00;;
9052;SDS011;4561;47.450;7.516;2023-12-28T02:15:14;1.40;;;1.30;;
9052;SDS011;4561;47.450;7.516;2023-12-28T02:18:38;1.27;;;1.17;;
9052;SDS011;4561;47.450;7.516;2023-12-28T02:22:01;2.20;;;1.33;;
9052;SDS011;4561;47.450;7.516;2023-12-28T02:25:22;1.70;;;1.60;;
9052;SDS011;4561;47.450;7.516;2023-12-28T02:28:43;2.00;;;1.80;;
9052;SDS011;4561;47.450;7.516;2023-12-28T02:32:07;1.90;;;1.50;;
9052;SDS011;4561;47.450;7.516;2023-12-28T02:35:33;1.97;;;1.30;;
9052;SDS011;4561;47.450;7.516;2023-12-28T02:39:06;2.53;;;1.40;;
9052;SDS011;4561;47.450;7.516;2023-12-28T02:42:28;1.40;;;1.30;;
9052;SDS011;4561;47.450;7.516;2023-12-28T02:45:49;1.73;;;1.40;;
9052;SDS011;4561;47.450;7.516;2023-12-28T02:49:09;1.20;;;1.10;;
9052;SDS011;4561;47.450;7.516;2023-12-28T02:52:31;1.70;;;1.40;;
9052;SDS011;4561;47.450;7.516;2023-12-28T02:55:52;1.83;;;1.13;;
9052;SDS011;4561;47.450;7.516;2023-12-28T02:59:12;2.13;;;1.30;;
9052;SDS011;4561;47.450;7.516;2023-12-28T03:02:32;1.93;;;1.10;;
9052;SDS011;4561;47.450;7.516;2023-12-28T03:05:55;2.50;;;1.77;;
9052;SDS011;4561;47.450;7.516;2023-12-28T03:09:16;2.23;;;1.67;;
9052;SDS011;4561;47.450;7.516;2023-12-28T03:12:39;1.73;;;1.50;;
9052;SDS011;4561;47.450;7.516;2023-12-28T03:15:59;2.47;;;1.37;;
9052;SDS011;4561;47.450;7.516;2023-12-28T03:19:22;1.80;;;1.53;;
9052;SDS011;4561;47.450;7.516;2023-12-28T03:22:42;3.00;;;1.30;;
9052;SDS011;4561;47.450;7.516;2023-12-28T03:26:05;2.13;;;1.60;;
9052;SDS011;4561;47.450;7.516;2023-12-28T03:29:25;1.40;;;1.10;;
9052;SDS011;4561;47.450;7.516;2023-12-28T03:32:45;1.60;;;1.27;;
9052;SDS011;4561;47.450;7.516;2023-12-28T03:36:06;1.37;;;1.17;;
9052;SDS011;4561;47.450;7.516;2023-12-28T03:39:26;1.40;;;1.30;;
9052;SDS011;4561;47.450;7.516;2023-12-28T03:42:49;2.93;;;1.20;;
9052;SDS011;4561;47.450;7.516;2023-12-28T03:46:09;1.23;;;1.07;;
9052;SDS011;4561;47.450;7.516;2023-12-28T03:49:32;1.90;;;1.30;;
9052;SDS011;4561;47.450;7.516;2023-12-28T03:52:55;1.20;;;1.10;;
9052;SDS011;4561;47.450;7.516;2023-12-28T03:56:22;1.40;;;1.00;;
9052;SDS011;4561;47.450;7.516;2023-12-28T03:59:43;1.33;;;1.20;;
9052;SDS011;4561;47.450;7.516;2023-12-28T04:03:07;1.23;;;1.13;;
9052;SDS011;4561;47.450;7.516;2023-12-28T04:06:27;1.83;;;1.40;;
9052;SDS011;4561;47.450;7.516;2023-12-28T04:09:50;2.73;;;1.23;;
9052;SDS011;4561;47.450;7.516;2023-12-28T04:13:10;2.27;;;1.10;;
9052;SDS011;4561;47.450;7.516;2023-12-28T04:16:31;2.40;;;1.10;;
9052;SDS011;4561;47.450;7.516;2023-12-28T04:19:51;1.30;;;1.20;;
9052;SDS011;4561;47.450;7.516;2023-12-28T04:23:11;2.13;;;1.10;;
9052;SDS011;4561;47.450;7.516;2023-12-28T04:26:34;2.10;;;1.10;;
9052;SDS011;4561;47.450;7.516;2023-12-28T04:29:54;1.83;;;1.20;;
9052;SDS011;4561;47.450;7.516;2023-12-28T04:33:16;1.47;;;1.20;;
9052;SDS011;4561;47.450;7.516;2023-12-28T04:36:40;1.10;;;0.90;;
9052;SDS011;4561;47.450;7.516;2023-12-28T04:40:04;1.20;;;1.10;;
9052;SDS011;4561;47.450;7.516;2023-12-28T04:43:25;1.17;;;0.90;;
9052;SDS011;4561;47.450;7.516;2023-12-28T04:46:45;1.10;;;1.00;;
9052;SDS011;4561;47.450;7.516;2023-12-28T04:50:08;1.67;;;1.17;;
9052;SDS011;4561;47.450;7.516;2023-12-28T04:53:29;1.33;;;1.20;;
9052;SDS011;4561;47.450;7.516;2023-12-28T04:56:49;1.33;;;1.10;;
9052;SDS011;4561;47.450;7.516;2023-12-28T05:00:12;1.20;;;1.00;;
9052;SDS011;4561;47.450;7.516;2023-12-28T05:03:32;1.50;;;1.00;;
9052;SDS011;4561;47.450;7.516;2023-12-28T05:06:53;1.10;;;0.87;;
9052;SDS011;4561;47.450;7.516;2023-12-28T05:10:13;1.43;;;0.93;;
9052;SDS011;4561;47.450;7.516;2023-12-28T05:13:34;1.73;;;1.10;;
9052;SDS011;4561;47.450;7.516;2023-12-28T05:16:59;1.13;;;1.00;;
9052;SDS011;4561;47.450;7.516;2023-12-28T05:20:24;1.10;;;0.90;;
9052;SDS011;4561;47.450;7.516;2023-12-28T05:23:47;1.80;;;1.07;;
9052;SDS011;4561;47.450;7.516;2023-12-28T05:27:09;1.73;;;0.90;;
9052;SDS011;4561;47.450;7.516;2023-12-28T05:30:30;1.30;;;0.90;;
9052;SDS011;4561;47.450;7.516;2023-12-28T05:33:50;2.00;;;0.80;;
9052;SDS011;4561;47.450;7.516;2023-12-28T05:37:10;0.80;;;0.80;;
9052;SDS011;4561;47.450;7.516;2023-12-28T05:40:31;2.50;;;1.07;;
9052;SDS011;4561;47.450;7.516;2023-12-28T05:43:54;0.97;;;0.87;;
9052;SDS011;4561;47.450;7.516;2023-12-28T05:47:14;0.70;;;0.70;;
9052;SDS011;4561;47.450;7.516;2023-12-28T05:50:34;1.00;;;0.80;;
9052;SDS011;4561;47.450;7.516;2023-12-28T05:53:55;0.60;;;0.60;;
9052;SDS011;4561;47.450;7.516;2023-12-28T05:57:15;0.80;;;0.70;;
9052;SDS011;4561;47.450;7.516;2023-12-28T06:00:35;1.37;;;1.07;;
9052;SDS011;4561;47.450;7.516;2023-12-28T06:03:59;1.20;;;0.70;;
9052;SDS011;4561;47.450;7.516;2023-12-28T06:07:21;0.97;;;0.70;;
9052;SDS011;4561;47.450;7.516;2023-12-28T06:10:41;0.80;;;0.80;;
9052;SDS011;4561;47.450;7.516;2023-12-28T06:14:06;0.90;;;0.87;;
9052;SDS011;4561;47.450;7.516;2023-12-28T06:17:27;0.97;;;0.80;;
9052;SDS011;4561;47.450;7.516;2023-12-28T06:20:47;1.07;;;1.00;;
9052;SDS011;4561;47.450;7.516;2023-12-28T06:24:07;1.20;;;1.00;;
9052;SDS011;4561;47.450;7.516;2023-12-28T06:27:28;1.40;;;0.70;;
9052;SDS011;4561;47.450;7.516;2023-12-28T06:30:53;1.73;;;0.83;;
9052;SDS011;4561;47.450;7.516;2023-12-28T06:34:15;1.37;;;0.90;;
9052;SDS011;4561;47.450;7.516;2023-12-28T06:37:38;1.07;;;0.80;;
9052;SDS011;4561;47.450;7.516;2023-12-28T06:40:58;1.80;;;1.00;;
9052;SDS011;4561;47.450;7.516;2023-12-28T06:44:18;0.97;;;0.80;;
9052;SDS011;4561;47.450;7.516;2023-12-28T06:47:41;1.20;;;0.93;;
9052;SDS011;4561;47.450;7.516;2023-12-28T06:51:01;2.40;;;2.10;;
9052;SDS011;4561;47.450;7.516;2023-12-28T06:54:24;3.27;;;2.13;;
9052;SDS011;4561;47.450;7.516;2023-12-28T06:57:44;2.00;;;1.40;;
9052;SDS011;4561;47.450;7.516;2023-12-28T07:01:05;1.40;;;1.30;;
9052;SDS011;4561;47.450;7.516;2023-12-28T07:04:25;1.20;;;1.10;;
9052;SDS011;4561;47.450;7.516;2023-12-28T07:07:49;1.53;;;1.00;;
9052;SDS011;4561;47.450;7.516;2023-12-28T07:11:10;3.23;;;2.30;;
9052;SDS011;4561;47.450;7.516;2023-12-28T07:14:31;2.50;;;2.00;;
9052;SDS011;4561;47.450;7.516;2023-12-28T07:17:51;2.20;;;1.63;;
9052;SDS011;4561;47.450;7.516;2023-12-28T07:21:12;1.93;;;1.40;;
9052;SDS011;4561;47.450;7.516;2023-12-28T07:24:35;2.40;;;1.63;;
9052;SDS011;4561;47.450;7.516;2023-12-28T07:27:55;1.33;;;1.23;;
9052;SDS011;4561;47.450;7.516;2023-12-28T07:31:22;0.90;;;0.90;;
9052;SDS011;4561;47.450;7.516;2023-12-28T07:34:48;1.13;;;1.00;;
9052;SDS011;4561;47.450;7.516;2023-12-28T07:38:09;0.90;;;0.90;;
9052;SDS011;4561;47.450;7.516;2023-12-28T07:41:31;1.37;;;1.00;;
9052;SDS011;4561;47.450;7.516;2023-12-28T07:44:54;1.93;;;1.70;;
9052;SDS011;4561;47.450;7.516;2023-12-28T07:48:14;1.30;;;1.17;;
9052;SDS011;4561;47.450;7.516;2023-12-28T07:51:37;1.00;;;0.90;;
9052;SDS011;4561;47.450;7.516;2023-12-28T07:55:00;1.00;;;0.93;;
9052;SDS011;4561;47.450;7.516;2023-12-28T07:58:20;1.60;;;1.30;;
9052;SDS011;4561;47.450;7.516;2023-12-28T08:01:40;1.63;;;1.50;;
9052;SDS011;4561;47.450;7.516;2023-12-28T08:05:01;1.73;;;1.47;;
9052;SDS011;4561;47.450;7.516;2023-12-28T08:08:21;2.00;;;1.30;;
9052;SDS011;4561;47.450;7.516;2023-12-28T08:11:46;2.07;;;1.50;;
9052;SDS011;4561;47.450;7.516;2023-12-28T08:15:09;1.23;;;1.00;;
9052;SDS011;4561;47.450;7.516;2023-12-28T08:18:29;1.33;;;0.83;;
9052;SDS011;4561;47.450;7.516;2023-12-28T08:21:50;1.80;;;1.10;;
9052;SDS011;4561;47.450;7.516;2023-12-28T08:25:10;1.10;;;0.97;;
9052;SDS011;4561;47.450;7.516;2023-12-28T08:28:31;2.97;;;1.20;;
9052;SDS011;4561;47.450;7.516;2023-12-28T08:31:51;1.77;;;1.10;;
9052;SDS011;4561;47.450;7.516;2023-12-28T08:35:15;2.13;;;0.83;;
9052;SDS011;4561;47.450;7.516;2023-12-28T08:38:35;6.17;;;4.37;;
9052;SDS011;4561;47.450;7.516;2023-12-28T08:41:56;6.30;;;5.43;;
9052;SDS011;4561;47.450;7.516;2023-12-28T08:45:16;4.10;;;2.37;;
9052;SDS011;4561;47.450;7.516;2023-12-28T08:48:36;1.50;;;1.40;;
9052;SDS011;4561;47.450;7.516;2023-12-28T08:51:59;1.67;;;1.37;;
9052;SDS011;4561;47.450;7.516;2023-12-28T08:55:20;1.70;;;1.53;;
9052;SDS011;4561;47.450;7.516;2023-12-28T08:58:41;1.43;;;0.90;;
9052;SDS011;4561;47.450;7.516;2023-12-28T09:02:04;2.33;;;1.03;;
9052;SDS011;4561;47.450;7.516;2023-12-28T09:05:24;1.30;;;1.20;;
9052;SDS011;4561;47.450;7.516;2023-12-28T09:08:45;1.37;;;1.10;;
9052;SDS011;4561;47.450;7.516;2023-12-28T09:12:07;1.63;;;1.10;;
9052;SDS011;4561;47.450;7.516;2023-12-28T09:15:27;1.40;;;1.10;;
9052;SDS011;4561;47.450;7.516;2023-12-28T09:18:48;2.10;;;1.90;;
9052;SDS011;4561;47.450;7.516;2023-12-28T09:22:10;4.03;;;2.00;;
9052;SDS011;4561;47.450;7.516;2023-12-28T09:25:31;1.83;;;1.70;;
9052;SDS011;4561;47.450;7.516;2023-12-28T09:28:53;1.40;;;1.30;;
9052;SDS011;4561;47.450;7.516;2023-12-28T09:32:15;3.17;;;2.57;;
9052;SDS011;4561;47.450;7.516;2023-12-28T09:35:37;3.03;;;2.30;;
9052;SDS011;4561;47.450;7.516;2023-12-28T09:38:58;3.13;;;2.20;;
9052;SDS011;4561;47.450;7.516;2023-12-28T09:42:29;3.40;;;2.73;;
9052;SDS011;4561;47.450;7.516;2023-12-28T09:45:58;4.33;;;3.07;;
9052;SDS011;4561;47.450;7.516;2023-12-28T09:49:19;3.90;;;2.97;;
9052;SDS011;4561;47.450;7.516;2023-12-28T09:52:44;3.40;;;2.37;;
9052;SDS011;4561;47.450;7.516;2023-12-28T09:56:04;8.07;;;2.40;;
9052;SDS011;4561;47.450;7.516;2023-12-28T09:59:26;5.50;;;2.13;;
9052;SDS011;4561;47.450;7.516;2023-12-28T10:02:47;11.50;;;7.90;;
9052;SDS011;4561;47.450;7.516;2023-12-28T10:06:10;3.03;;;1.50;;
9052;SDS011;4561;47.450;7.516;2023-12-28T10:09:37;2.23;;;1.27;;
9052;SDS011;4561;47.450;7.516;2023-12-28T10:12:58;3.03;;;1.93;;
9052;SDS011;4561;47.450;7.516;2023-12-28T10:16:18;9.13;;;4.90;;
9052;SDS011;4561;47.450;7.516;2023-12-28T10:19:38;13.20;;;6.23;;
9052;SDS011;4561;47.450;7.516;2023-12-28T10:22:59;4.30;;;2.03;;
9052;SDS011;4561;47.450;7.516;2023-12-28T10:26:20;2.83;;;1.70;;
9052;SDS011;4561;47.450;7.516;2023-12-28T10:29:40;2.00;;;1.80;;
9052;SDS011;4561;47.450;7.516;2023-12-28T10:33:04;2.60;;;1.77;;
9052;SDS011;4561;47.450;7.516;2023-12-28T10:36:25;4.37;;;1.77;;
9052;SDS011;4561;47.450;7.516;2023-12-28T10:39:50;2.33;;;1.60;;
9052;SDS011;4561;47.450;7.516;2023-12-28T10:43:16;2.17;;;1.90;;
9052;SDS011;4561;47.450;7.516;2023-12-28T10:46:40;2.90;;;1.70;;
9052;SDS011;4561;47.450;7.516;2023-12-28T10:50:10;1.80;;;1.50;;
9052;SDS011;4561;47.450;7.516;2023-12-28T10:53:54;3.37;;;1.83;;
9052;SDS011;4561;47.450;7.516;2023-12-28T10:57:23;2.83;;;1.80;;
9052;SDS011;4561;47.450;7.516;2023-12-28T11:00:51;2.30;;;1.87;;
9052;SDS011;4561;47.450;7.516;2023-12-28T11:07:45;3.53;;;1.90;;
9052;SDS011;4561;47.450;7.516;2023-12-28T11:11:07;3.67;;;2.10;;
9052;SDS011;4561;47.450;7.516;2023-12-28T11:14:27;3.10;;;2.00;;
9052;SDS011;4561;47.450;7.516;2023-12-28T11:17:48;2.43;;;1.97;;
9052;SDS011;4561;47.450;7.516;2023-12-28T11:21:08;2.87;;;1.80;;
9052;SDS011;4561;47.450;7.516;2023-12-28T11:24:29;2.83;;;2.00;;
9052;SDS011;4561;47.450;7.516;2023-12-28T11:27:54;3.57;;;1.93;;
9052;SDS011;4561;47.450;7.516;2023-12-28T11:31:14;3.60;;;2.97;;
9052;SDS011;4561;47.450;7.516;2023-12-28T11:34:35;2.93;;;2.07;;
9052;SDS011;4561;47.450;7.516;2023-12-28T11:37:59;2.83;;;2.53;;
9052;SDS011;4561;47.450;7.516;2023-12-28T11:41:24;2.90;;;2.43;;
9052;SDS011;4561;47.450;7.516;2023-12-28T11:44:44;2.67;;;2.33;;
9052;SDS011;4561;47.450;7.516;2023-12-28T11:48:05;2.70;;;2.33;;
9052;SDS011;4561;47.450;7.516;2023-12-28T11:51:28;2.40;;;2.03;;
9052;SDS011;4561;47.450;7.516;2023-12-28T11:54:50;2.23;;;1.80;;
9052;SDS011;4561;47.450;7.516;2023-12-28T11:58:11;2.60;;;2.03;;
9052;SDS011;4561;47.450;7.516;2023-12-28T12:01:32;4.97;;;3.90;;
9052;SDS011;4561;47.450;7.516;2023-12-28T12:04:55;3.00;;;2.10;;
9052;SDS011;4561;47.450;7.516;2023-12-28T12:08:19;3.93;;;2.17;;
9052;SDS011;4561;47.450;7.516;2023-12-28T12:11:42;2.37;;;2.13;;
9052;SDS011;4561;47.450;7.516;2023-12-28T12:15:03;4.57;;;2.33;;
9052;SDS011;4561;47.450;7.516;2023-12-28T12:18:24;2.30;;;2.10;;
9052;SDS011;4561;47.450;7.516;2023-12-28T12:21:45;4.03;;;2.50;;
9052;SDS011;4561;47.450;7.516;2023-12-28T12:25:08;4.10;;;2.40;;
9052;SDS011;4561;47.450;7.516;2023-12-28T12:28:29;3.93;;;2.40;;
9052;SDS011;4561;47.450;7.516;2023-12-28T12:31:50;2.93;;;2.53;;
9052;SDS011;4561;47.450;7.516;2023-12-28T12:35:10;3.43;;;2.60;;
9052;SDS011;4561;47.450;7.516;2023-12-28T12:38:31;4.27;;;2.80;;
9052;SDS011;4561;47.450;7.516;2023-12-28T12:41:52;4.70;;;3.20;;
9052;SDS011;4561;47.450;7.516;2023-12-28T12:45:13;4.97;;;4.00;;
9052;SDS011;4561;47.450;7.516;2023-12-28T12:48:33;6.23;;;3.53;;
9052;SDS011;4561;47.450;7.516;2023-12-28T12:51:56;3.77;;;2.80;;
9052;SDS011;4561;47.450;7.516;2023-12-28T12:55:17;4.53;;;2.40;;
9052;SDS011;4561;47.450;7.516;2023-12-28T12:58:37;3.90;;;2.70;;
9052;SDS011;4561;47.450;7.516;2023-12-28T13:01:58;2.97;;;2.67;;
9052;SDS011;4561;47.450;7.516;2023-12-28T13:05:21;2.60;;;2.40;;
9052;SDS011;4561;47.450;7.516;2023-12-28T13:08:43;2.90;;;2.20;;
9052;SDS011;4561;47.450;7.516;2023-12-28T13:12:04;2.77;;;2.00;;
9052;SDS011;4561;47.450;7.516;2023-12-28T13:15:24;3.00;;;1.83;;
9052;SDS011;4561;47.450;7.516;2023-12-28T13:18:45;2.70;;;2.00;;
9052;SDS011;4561;47.450;7.516;2023-12-28T13:22:08;2.50;;;2.10;;
9052;SDS011;4561;47.450;7.516;2023-12-28T13:25:31;4.90;;;2.17;;
9052;SDS011;4561;47.450;7.516;2023-12-28T13:28:55;4.10;;;2.07;;
9052;SDS011;4561;47.450;7.516;2023-12-28T13:32:16;3.17;;;2.50;;
9052;SDS011;4561;47.450;7.516;2023-12-28T13:35:41;5.67;;;2.57;;
9052;SDS011;4561;47.450;7.516;2023-12-28T13:39:06;3.53;;;2.10;;
9052;SDS011;4561;47.450;7.516;2023-12-28T13:42:29;2.17;;;1.73;;
9052;SDS011;4561;47.450;7.516;2023-12-28T13:45:49;4.63;;;2.30;;
9052;SDS011;4561;47.450;7.516;2023-12-28T13:49:09;2.67;;;2.23;;
9052;SDS011;4561;47.450;7.516;2023-12-28T13:52:30;3.00;;;2.50;;
9052;SDS011;4561;47.450;7.516;2023-12-28T13:55:52;5.43;;;2.50;;
9052;SDS011;4561;47.450;7.516;2023-12-28T13:59:13;3.63;;;2.10;;
9052;SDS011;4561;47.450;7.516;2023-12-28T14:02:34;2.73;;;2.00;;
9052;SDS011;4561;47.450;7.516;2023-12-28T14:05:56;2.93;;;2.30;;
9052;SDS011;4561;47.450;7.516;2023-12-28T14:09:19;4.23;;;2.50;;
9052;SDS011;4561;47.450;7.516;2023-12-28T14:12:41;2.90;;;2.60;;
9052;SDS011;4561;47.450;7.516;2023-12-28T14:16:04;30.73;;;18.57;;
9052;SDS011;4561;47.450;7.516;2023-12-28T14:19:30;5.77;;;3.97;;
9052;SDS011;4561;47.450;7.516;2023-12-28T14:22:52;6.77;;;3.67;;
9052;SDS011;4561;47.450;7.516;2023-12-28T14:26:15;3.60;;;3.10;;
9052;SDS011;4561;47.450;7.516;2023-12-28T14:29:39;4.80;;;2.80;;
9052;SDS011;4561;47.450;7.516;2023-12-28T14:33:02;4.43;;;3.07;;
9052;SDS011;4561;47.450;7.516;2023-12-28T14:39:55;2.97;;;2.37;;
9052;SDS011;4561;47.450;7.516;2023-12-28T14:43:15;2.87;;;2.43;;
9052;SDS011;4561;47.450;7.516;2023-12-28T14:46:35;4.93;;;3.10;;
9052;SDS011;4561;47.450;7.516;2023-12-28T14:49:56;3.53;;;2.90;;
9052;SDS011;4561;47.450;7.516;2023-12-28T14:53:18;3.00;;;2.70;;
9052;SDS011;4561;47.450;7.516;2023-12-28T14:56:39;3.50;;;2.83;;
9052;SDS011;4561;47.450;7.516;2023-12-28T14:59:59;5.53;;;3.10;;
9052;SDS011;4561;47.450;7.516;2023-12-28T15:03:19;4.53;;;3.30;;
9052;SDS011;4561;47.450;7.516;2023-12-28T15:06:40;4.23;;;2.60;;
9052;SDS011;4561;47.450;7.516;2023-12-28T15:10:01;3.27;;;2.77;;
9052;SDS011;4561;47.450;7.516;2023-12-28T15:13:23;3.10;;;2.50;;
9052;SDS011;4561;47.450;7.516;2023-12-28T15:16:43;6.10;;;3.00;;
9052;SDS011;4561;47.450;7.516;2023-12-28T15:20:04;4.27;;;2.97;;
9052;SDS011;4561;47.450;7.516;2023-12-28T15:23:27;14.47;;;9.13;;
9052;SDS011;4561;47.450;7.516;2023-12-28T15:26:48;13.57;;;9.20;;
9052;SDS011;4561;47.450;7.516;2023-12-28T15:30:11;8.67;;;5.90;;
9052;SDS011;4561;47.450;7.516;2023-12-28T15:33:32;8.97;;;5.47;;
9052;SDS011;4561;47.450;7.516;2023-12-28T15:36:52;5.63;;;4.07;;
9052;SDS011;4561;47.450;7.516;2023-12-28T15:40:12;5.63;;;3.83;;
9052;SDS011;4561;47.450;7.516;2023-12-28T15:43:35;7.60;;;5.57;;
9052;SDS011;4561;47.450;7.516;2023-12-28T15:46:56;4.33;;;3.57;;
9052;SDS011;4561;47.450;7.516;2023-12-28T15:50:16;6.13;;;3.27;;
9052;SDS011;4561;47.450;7.516;2023-12-28T15:53:36;6.47;;;4.27;;
9052;SDS011;4561;47.450;7.516;2023-12-28T15:56:57;50.43;;;32.53;;
9052;SDS011;4561;47.450;7.516;2023-12-28T16:00:17;20.50;;;12.57;;
9052;SDS011;4561;47.450;7.516;2023-12-28T16:03:40;14.47;;;10.07;;
9052;SDS011;4561;47.450;7.516;2023-12-28T16:07:01;10.40;;;7.13;;
9052;SDS011;4561;47.450;7.516;2023-12-28T16:10:23;5.03;;;4.20;;
9052;SDS011;4561;47.450;7.516;2023-12-28T16:13:46;8.53;;;5.63;;
9052;SDS011;4561;47.450;7.516;2023-12-28T16:17:07;6.70;;;5.47;;
9052;SDS011;4561;47.450;7.516;2023-12-28T16:20:32;8.67;;;5.47;;
9052;SDS011;4561;47.450;7.516;2023-12-28T16:23:53;4.30;;;3.90;;
9052;SDS011;4561;47.450;7.516;2023-12-28T16:27:13;10.07;;;8.33;;
9052;SDS011;4561;47.450;7.516;2023-12-28T16:30:37;8.97;;;6.33;;
9052;SDS011;4561;47.450;7.516;2023-12-28T16:33:58;4.60;;;4.13;;
9052;SDS011;4561;47.450;7.516;2023-12-28T16:37:23;5.97;;;4.60;;
9052;SDS011;4561;47.450;7.516;2023-12-28T16:40:46;8.40;;;5.40;;
9052;SDS011;4561;47.450;7.516;2023-12-28T16:44:08;7.77;;;4.50;;
9052;SDS011;4561;47.450;7.516;2023-12-28T16:47:29;4.37;;;3.97;;
9052;SDS011;4561;47.450;7.516;2023-12-28T16:50:49;6.47;;;5.43;;
9052;SDS011;4561;47.450;7.516;2023-12-28T16:54:14;6.97;;;6.03;;
9052;SDS011;4561;47.450;7.516;2023-12-28T16:57:36;7.53;;;6.60;;
9052;SDS011;4561;47.450;7.516;2023-12-28T17:00:59;8.60;;;7.27;;
9052;SDS011;4561;47.450;7.516;2023-12-28T17:04:20;8.20;;;6.30;;
9052;SDS011;4561;47.450;7.516;2023-12-28T17:07:40;6.10;;;5.50;;
9052;SDS011;4561;47.450;7.516;2023-12-28T17:11:06;5.47;;;4.20;;
9052;SDS011;4561;47.450;7.516;2023-12-28T17:14:29;9.40;;;6.40;;
9052;SDS011;4561;47.450;7.516;2023-12-28T17:17:49;12.57;;;9.20;;
9052;SDS011;4561;47.450;7.516;2023-12-28T17:21:16;8.17;;;5.60;;
9052;SDS011;4561;47.450;7.516;2023-12-28T17:24:45;5.87;;;4.10;;
9052;SDS011;4561;47.450;7.516;2023-12-28T17:28:14;5.17;;;4.03;;
9052;SDS011;4561;47.450;7.516;2023-12-28T17:31:38;5.23;;;3.27;;
9052;SDS011;4561;47.450;7.516;2023-12-28T17:35:00;4.50;;;3.67;;
9052;SDS011;4561;47.450;7.516;2023-12-28T17:38:20;4.40;;;3.60;;
9052;SDS011;4561;47.450;7.516;2023-12-28T17:41:41;4.23;;;3.50;;
9052;SDS011;4561;47.450;7.516;2023-12-28T17:45:02;5.63;;;4.20;;
9052;SDS011;4561;47.450;7.516;2023-12-28T17:48:25;7.10;;;5.07;;
9052;SDS011;4561;47.450;7.516;2023-12-28T17:51:45;6.40;;;5.77;;
9052;SDS011;4561;47.450;7.516;2023-12-28T17:55:07;9.90;;;8.23;;
9052;SDS011;4561;47.450;7.516;2023-12-28T17:58:27;10.40;;;9.30;;
9052;SDS011;4561;47.450;7.516;2023-12-28T18:01:48;10.10;;;9.10;;
9052;SDS011;4561;47.450;7.516;2023-12-28T18:05:10;12.57;;;10.23;;
9052;SDS011;4561;47.450;7.516;2023-12-28T18:08:30;23.77;;;19.63;;
9052;SDS011;4561;47.450;7.516;2023-12-28T18:11:51;21.70;;;16.17;;
9052;SDS011;4561;47.450;7.516;2023-12-28T18:15:11;19.53;;;15.33;;
9052;SDS011;4561;47.450;7.516;2023-12-28T18:18:33;8.30;;;7.50;;
9052;SDS011;4561;47.450;7.516;2023-12-28T18:21:56;7.37;;;6.27;;
9052;SDS011;4561;47.450;7.516;2023-12-28T18:25:18;7.83;;;6.63;;
9052;SDS011;4561;47.450;7.516;2023-12-28T18:28:38;6.57;;;5.37;;
9052;SDS011;4561;47.450;7.516;2023-12-28T18:31:58;6.57;;;5.63;;
9052;SDS011;4561;47.450;7.516;2023-12-28T18:35:21;6.87;;;5.90;;
9052;SDS011;4561;47.450;7.516;2023-12-28T18:38:42;6.57;;;5.83;;
9052;SDS011;4561;47.450;7.516;2023-12-28T18:42:09;6.80;;;5.30;;
9052;SDS011;4561;47.450;7.516;2023-12-28T18:45:30;7.37;;;6.23;;
9052;SDS011;4561;47.450;7.516;2023-12-28T18:48:51;7.13;;;5.97;;
9052;SDS011;4561;47.450;7.516;2023-12-28T18:52:14;10.47;;;6.43;;
9052;SDS011;4561;47.450;7.516;2023-12-28T18:55:36;6.83;;;6.10;;
9052;SDS011;4561;47.450;7.516;2023-12-28T18:58:58;8.60;;;7.80;;
9052;SDS011;4561;47.450;7.516;2023-12-28T19:02:18;8.63;;;7.73;;
9052;SDS011;4561;47.450;7.516;2023-12-28T19:05:44;9.60;;;8.23;;
9052;SDS011;4561;47.450;7.516;2023-12-28T19:09:04;8.60;;;7.70;;
9052;SDS011;4561;47.450;7.516;2023-12-28T19:12:25;7.17;;;6.40;;
9052;SDS011;4561;47.450;7.516;2023-12-28T19:15:45;6.63;;;5.40;;
9052;SDS011;4561;47.450;7.516;2023-12-28T19:19:05;6.00;;;5.00;;
9052;SDS011;4561;47.450;7.516;2023-12-28T19:22:31;5.47;;;4.63;;
9052;SDS011;4561;47.450;7.516;2023-12-28T19:25:54;7.77;;;5.43;;
9052;SDS011;4561;47.450;7.516;2023-12-28T19:29:14;6.30;;;5.30;;
9052;SDS011;4561;47.450;7.516;2023-12-28T19:32:34;5.23;;;4.73;;
9052;SDS011;4561;47.450;7.516;2023-12-28T19:35:55;5.93;;;4.57;;
9052;SDS011;4561;47.450;7.516;2023-12-28T19:39:15;5.13;;;4.73;;
9052;SDS011;4561;47.450;7.516;2023-12-28T19:42:38;6.87;;;6.27;;
9052;SDS011;4561;47.450;7.516;2023-12-28T19:46:01;5.93;;;5.33;;
9052;SDS011;4561;47.450;7.516;2023-12-28T19:49:21;7.13;;;5.93;;
9052;SDS011;4561;47.450;7.516;2023-12-28T19:52:44;6.60;;;4.57;;
9052;SDS011;4561;47.450;7.516;2023-12-28T19:56:04;7.33;;;5.17;;
9052;SDS011;4561;47.450;7.516;2023-12-28T19:59:25;4.90;;;4.33;;
9052;SDS011;4561;47.450;7.516;2023-12-28T20:02:45;5.27;;;4.60;;
9052;SDS011;4561;47.450;7.516;2023-12-28T20:06:06;12.97;;;4.80;;
9052;SDS011;4561;47.450;7.516;2023-12-28T20:09:28;5.00;;;4.17;;
9052;SDS011;4561;47.450;7.516;2023-12-28T20:12:49;4.53;;;4.13;;
9052;SDS011;4561;47.450;7.516;2023-12-28T20:16:12;4.83;;;4.43;;
9052;SDS011;4561;47.450;7.516;2023-12-28T20:19:32;5.03;;;4.57;;
9052;SDS011;4561;47.450;7.516;2023-12-28T20:22:52;5.60;;;5.10;;
9052;SDS011;4561;47.450;7.516;2023-12-28T20:26:13;5.70;;;4.50;;
9052;SDS011;4561;47.450;7.516;2023-12-28T20:29:35;4.93;;;3.90;;
9052;SDS011;4561;47.450;7.516;2023-12-28T20:32:59;4.23;;;3.93;;
9052;SDS011;4561;47.450;7.516;2023-12-28T20:36:22;4.57;;;3.57;;
9052;SDS011;4561;47.450;7.516;2023-12-28T20:39:42;4.27;;;3.70;;
9052;SDS011;4561;47.450;7.516;2023-12-28T20:43:03;3.60;;;3.30;;
9052;SDS011;4561;47.450;7.516;2023-12-28T20:46:23;3.80;;;3.33;;
9052;SDS011;4561;47.450;7.516;2023-12-28T20:49:44;4.07;;;3.50;;
9052;SDS011;4561;47.450;7.516;2023-12-28T20:53:04;5.23;;;3.70;;
9052;SDS011;4561;47.450;7.516;2023-12-28T20:56:24;46.43;;;14.73;;
9052;SDS011;4561;47.450;7.516;2023-12-28T20:59:45;17.53;;;13.57;;